Station Historical Data
Daily Summary for May 29, 2012 Units:  Both    English   Metric
« Previous Day
Next Day »
Daily Weekly Monthly Yearly Custom
  High: Low: Average:
Temperature: 87.8 °F /  31 °C 65.0 °F /  18.3 °C 76.6 °F /  24.8 °C
Dew Point: 72.6 °F /  22.6 °C 62.6 °F /  17 °C 68.7 °F /  20.4 °C
Humidity: 95% 54% 78%
Wind Speed: 24.0mph /  38.6km/h - 3mph /  4.8km/h
Wind Gust: 31.0mph /  49.9km/h - -
Wind- - South
Pressure: 29.89 in /  1012.1 hPa 29.74 in /  1007 hPa -
Precipitation: 0.31 in /  7.87 mm    
Historical Graphs
 
 
Tabular Data for May 29, 2012
Time Temperature Dew Point Pressure Wind Wind Speed Wind Gust Humidity Rainfall Rate (Hourly) Conditions
00:00 76.6 °F /  24.8 °C 70.0 °F /  21.1 °C 29.83in /  1010hPa ESE 1.0mph /  1.6km/h 1.0mph /  1.6km/h 80% 0.00in /  0mm
00:01 76.6 °F /  24.8 °C 70.3 °F /  21.3 °C 29.83in /  1010hPa ESE 1.0mph /  1.6km/h 1.0mph /  1.6km/h 81% 0.00in /  0mm
00:06 76.6 °F /  24.8 °C 70.3 °F /  21.3 °C 29.83in /  1010hPa ESE 1.0mph /  1.6km/h 1.0mph /  1.6km/h 81% 0.00in /  0mm
00:11 75.9 °F /  24.4 °C 69.7 °F /  20.9 °C 29.83in /  1010hPa Calm     81% 0.00in /  0mm
00:16 74.8 °F /  23.8 °C 69.3 °F /  20.7 °C 29.83in /  1010hPa Calm     83% 0.00in /  0mm
00:21 74.0 °F /  23.3 °C 69.2 °F /  20.7 °C 29.83in /  1010hPa Calm     85% 0.00in /  0mm
00:26 73.9 °F /  23.3 °C 69.4 °F /  20.8 °C 29.83in /  1010hPa Calm   1.0mph /  1.6km/h 86% 0.00in /  0mm
00:31 73.7 °F /  23.2 °C 69.3 °F /  20.7 °C 29.83in /  1010hPa Calm   1.0mph /  1.6km/h 86% 0.00in /  0mm
00:36 73.8 °F /  23.2 °C 69.7 °F /  20.9 °C 29.83in /  1010hPa NNE 1.0mph /  1.6km/h 1.0mph /  1.6km/h 87% 0.00in /  0mm
00:41 74.0 °F /  23.3 °C 69.6 °F /  20.9 °C 29.83in /  1010hPa Calm     86% 0.00in /  0mm
00:46 73.8 °F /  23.2 °C 69.3 °F /  20.7 °C 29.83in /  1010hPa Calm     86% 0.00in /  0mm
00:51 73.5 °F /  23.1 °C 69.4 °F /  20.8 °C 29.83in /  1010hPa Calm     87% 0.00in /  0mm
00:56 73.3 °F /  22.9 °C 69.2 °F /  20.7 °C 29.83in /  1010hPa ESE 2.0mph /  3.2km/h 2.0mph /  3.2km/h 87% 0.00in /  0mm
01:01 74.5 °F /  23.6 °C 69.7 °F /  20.9 °C 29.83in /  1010hPa ESE 2.0mph /  3.2km/h 2.0mph /  3.2km/h 85% 0.00in /  0mm
01:06 75.0 °F /  23.9 °C 69.5 °F /  20.8 °C 29.82in /  1009.7hPa Calm   2.0mph /  3.2km/h 83% 0.00in /  0mm
01:11 74.9 °F /  23.8 °C 69.4 °F /  20.8 °C 29.83in /  1010hPa East 1.0mph /  1.6km/h 2.0mph /  3.2km/h 83% 0.00in /  0mm
01:16 75.0 °F /  23.9 °C 69.1 °F /  20.6 °C 29.83in /  1010hPa ESE 1.0mph /  1.6km/h 1.0mph /  1.6km/h 82% 0.00in /  0mm
01:21 74.9 °F /  23.8 °C 69.0 °F /  20.6 °C 29.83in /  1010hPa ESE 1.0mph /  1.6km/h 1.0mph /  1.6km/h 82% 0.00in /  0mm
01:27 75.1 °F /  23.9 °C 69.2 °F /  20.7 °C 29.83in /  1010hPa ESE 1.0mph /  1.6km/h 1.0mph /  1.6km/h 82% 0.00in /  0mm
01:32 75.2 °F /  24 °C 69.3 °F /  20.7 °C 29.83in /  1010hPa ESE 1.0mph /  1.6km/h 1.0mph /  1.6km/h 82% 0.00in /  0mm
01:37 75.1 °F /  23.9 °C 69.6 °F /  20.9 °C 29.83in /  1010hPa SE 3.0mph /  4.8km/h 3.0mph /  4.8km/h 83% 0.00in /  0mm
01:42 75.1 °F /  23.9 °C 69.9 °F /  21.1 °C 29.83in /  1010hPa SE 2.0mph /  3.2km/h 3.0mph /  4.8km/h 84% 0.00in /  0mm
01:47 75.2 °F /  24 °C 70.0 °F /  21.1 °C 29.83in /  1010hPa ESE 3.0mph /  4.8km/h 3.0mph /  4.8km/h 84% 0.00in /  0mm
01:52 75.1 °F /  23.9 °C 69.6 °F /  20.9 °C 29.83in /  1010hPa SE 3.0mph /  4.8km/h 3.0mph /  4.8km/h 83% 0.00in /  0mm
01:57 75.2 °F /  24 °C 69.3 °F /  20.7 °C 29.82in /  1009.7hPa ESE 3.0mph /  4.8km/h 4.0mph /  6.4km/h 82% 0.00in /  0mm
02:02 75.5 °F /  24.2 °C 69.3 °F /  20.7 °C 29.82in /  1009.7hPa ESE 2.0mph /  3.2km/h 3.0mph /  4.8km/h 81% 0.00in /  0mm
02:07 75.7 °F /  24.3 °C 69.1 °F /  20.6 °C 29.82in /  1009.7hPa ESE 2.0mph /  3.2km/h 3.0mph /  4.8km/h 80% 0.00in /  0mm
02:12 75.7 °F /  24.3 °C 69.1 °F /  20.6 °C 29.82in /  1009.7hPa ESE 2.0mph /  3.2km/h 3.0mph /  4.8km/h 80% 0.00in /  0mm
02:17 75.8 °F /  24.3 °C 68.8 °F /  20.4 °C 29.81in /  1009.4hPa ESE 2.0mph /  3.2km/h 4.0mph /  6.4km/h 79% 0.00in /  0mm
02:22 75.9 °F /  24.4 °C 68.6 °F /  20.3 °C 29.81in /  1009.4hPa ESE 3.0mph /  4.8km/h 4.0mph /  6.4km/h 78% 0.00in /  0mm
02:27 75.5 °F /  24.2 °C 68.9 °F /  20.5 °C 29.81in /  1009.4hPa ESE 3.0mph /  4.8km/h 3.0mph /  4.8km/h 80% 0.00in /  0mm
02:32 75.4 °F /  24.1 °C 68.8 °F /  20.4 °C 29.81in /  1009.4hPa ESE 3.0mph /  4.8km/h 3.0mph /  4.8km/h 80% 0.00in /  0mm
02:37 75.4 °F /  24.1 °C 68.4 °F /  20.2 °C 29.81in /  1009.4hPa ESE 3.0mph /  4.8km/h 3.0mph /  4.8km/h 79% 0.00in /  0mm
02:42 75.4 °F /  24.1 °C 68.8 °F /  20.4 °C 29.81in /  1009.4hPa ESE 3.0mph /  4.8km/h 5.0mph /  8km/h 80% 0.00in /  0mm
02:47 74.9 °F /  23.8 °C 68.7 °F /  20.4 °C 29.82in /  1009.7hPa ESE 4.0mph /  6.4km/h 6.0mph /  9.7km/h 81% 0.00in /  0mm
02:52 74.4 °F /  23.6 °C 68.9 °F /  20.5 °C 29.81in /  1009.4hPa ESE 3.0mph /  4.8km/h 5.0mph /  8km/h 83% 0.00in /  0mm
02:57 74.3 °F /  23.5 °C 68.8 °F /  20.4 °C 29.81in /  1009.4hPa ESE 3.0mph /  4.8km/h 6.0mph /  9.7km/h 83% 0.00in /  0mm
03:02 74.4 °F /  23.6 °C 68.6 °F /  20.3 °C 29.81in /  1009.4hPa SE 4.0mph /  6.4km/h 5.0mph /  8km/h 82% 0.00in /  0mm
03:07 74.5 °F /  23.6 °C 68.7 °F /  20.4 °C 29.81in /  1009.4hPa ESE 3.0mph /  4.8km/h 6.0mph /  9.7km/h 82% 0.00in /  0mm
03:12 74.6 °F /  23.7 °C 68.4 °F /  20.2 °C 29.82in /  1009.7hPa ESE 4.0mph /  6.4km/h 6.0mph /  9.7km/h 81% 0.00in /  0mm
03:17 74.3 °F /  23.5 °C 68.4 °F /  20.2 °C 29.82in /  1009.7hPa ESE 3.0mph /  4.8km/h 4.0mph /  6.4km/h 82% 0.00in /  0mm
03:22 73.9 °F /  23.3 °C 68.8 °F /  20.4 °C 29.82in /  1009.7hPa ESE 2.0mph /  3.2km/h 3.0mph /  4.8km/h 84% 0.00in /  0mm
03:27 73.6 °F /  23.1 °C 68.5 °F /  20.3 °C 29.82in /  1009.7hPa SE 2.0mph /  3.2km/h 4.0mph /  6.4km/h 84% 0.00in /  0mm
03:32 73.4 °F /  23 °C 68.3 °F /  20.2 °C 29.82in /  1009.7hPa SE 2.0mph /  3.2km/h 4.0mph /  6.4km/h 84% 0.00in /  0mm
03:37 73.2 °F /  22.9 °C 68.1 °F /  20.1 °C 29.82in /  1009.7hPa ESE 4.0mph /  6.4km/h 6.0mph /  9.7km/h 84% 0.00in /  0mm
03:42 73.4 °F /  23 °C 67.9 °F /  19.9 °C 29.82in /  1009.7hPa ESE 4.0mph /  6.4km/h 6.0mph /  9.7km/h 83% 0.00in /  0mm
03:47 73.6 °F /  23.1 °C 67.8 °F /  19.9 °C 29.82in /  1009.7hPa SE 2.0mph /  3.2km/h 6.0mph /  9.7km/h 82% 0.00in /  0mm
03:52 73.9 °F /  23.3 °C 67.7 °F /  19.8 °C 29.82in /  1009.7hPa SE 6.0mph /  9.7km/h 6.0mph /  9.7km/h 81% 0.00in /  0mm
03:57 74.2 °F /  23.4 °C 67.6 °F /  19.8 °C 29.82in /  1009.7hPa SE 3.0mph /  4.8km/h 8.0mph /  12.9km/h 80% 0.00in /  0mm
04:02 74.1 °F /  23.4 °C 67.5 °F /  19.7 °C 29.82in /  1009.7hPa SE 4.0mph /  6.4km/h 5.0mph /  8km/h 80% 0.00in /  0mm
04:07 74.2 °F /  23.4 °C 67.6 °F /  19.8 °C 29.82in /  1009.7hPa SE 4.0mph /  6.4km/h 4.0mph /  6.4km/h 80% 0.00in /  0mm
04:12 74.2 °F /  23.4 °C 67.6 °F /  19.8 °C 29.82in /  1009.7hPa SE 3.0mph /  4.8km/h 7.0mph /  11.3km/h 80% 0.00in /  0mm
04:18 74.0 °F /  23.3 °C 67.4 °F /  19.7 °C 29.82in /  1009.7hPa ESE 3.0mph /  4.8km/h 3.0mph /  4.8km/h 80% 0.00in /  0mm
04:23 73.9 °F /  23.3 °C 67.3 °F /  19.6 °C 29.82in /  1009.7hPa ESE 3.0mph /  4.8km/h 3.0mph /  4.8km/h 80% 0.00in /  0mm
04:27 73.7 °F /  23.2 °C 67.5 °F /  19.7 °C 29.82in /  1009.7hPa SSE 2.0mph /  3.2km/h 2.0mph /  3.2km/h 81% 0.00in /  0mm
04:32 73.5 °F /  23.1 °C 67.3 °F /  19.6 °C 29.83in /  1010hPa Calm   1.0mph /  1.6km/h 81% 0.00in /  0mm
04:37 73.3 °F /  22.9 °C 67.1 °F /  19.5 °C 29.83in /  1010hPa Calm   2.0mph /  3.2km/h 81% 0.00in /  0mm
04:43 72.9 °F /  22.7 °C 67.1 °F /  19.5 °C 29.83in /  1010hPa South 1.0mph /  1.6km/h 1.0mph /  1.6km/h 82% 0.00in /  0mm
04:48 72.7 °F /  22.6 °C 67.2 °F /  19.6 °C 29.83in /  1010hPa SE 1.0mph /  1.6km/h 2.0mph /  3.2km/h 83% 0.00in /  0mm
04:53 72.8 °F /  22.7 °C 67.3 °F /  19.6 °C 29.83in /  1010hPa ESE 2.0mph /  3.2km/h 2.0mph /  3.2km/h 83% 0.00in /  0mm
04:58 72.6 °F /  22.6 °C 67.2 °F /  19.6 °C 29.83in /  1010hPa ESE 2.0mph /  3.2km/h 3.0mph /  4.8km/h 83% 0.00in /  0mm
05:04 72.5 °F /  22.5 °C 67.1 °F /  19.5 °C 29.84in /  1010.4hPa ESE 1.0mph /  1.6km/h 1.0mph /  1.6km/h 83% 0.00in /  0mm
05:09 72.5 °F /  22.5 °C 67.1 °F /  19.5 °C 29.83in /  1010hPa ESE 1.0mph /  1.6km/h 2.0mph /  3.2km/h 83% 0.00in /  0mm
05:13 72.4 °F /  22.4 °C 66.9 °F /  19.4 °C 29.84in /  1010.4hPa SE 2.0mph /  3.2km/h 2.0mph /  3.2km/h 83% 0.00in /  0mm
05:19 72.3 °F /  22.4 °C 67.2 °F /  19.6 °C 29.84in /  1010.4hPa SE 1.0mph /  1.6km/h 1.0mph /  1.6km/h 84% 0.00in /  0mm
05:24 72.2 °F /  22.3 °C 67.1 °F /  19.5 °C 29.84in /  1010.4hPa ESE 3.0mph /  4.8km/h 3.0mph /  4.8km/h 84% 0.00in /  0mm
05:29 72.3 °F /  22.4 °C 67.2 °F /  19.6 °C 29.84in /  1010.4hPa SE 3.0mph /  4.8km/h 4.0mph /  6.4km/h 84% 0.00in /  0mm
05:34 72.4 °F /  22.4 °C 67.3 °F /  19.6 °C 29.84in /  1010.4hPa SE 2.0mph /  3.2km/h 6.0mph /  9.7km/h 84% 0.00in /  0mm
05:39 72.5 °F /  22.5 °C 67.1 °F /  19.5 °C 29.84in /  1010.4hPa SE 2.0mph /  3.2km/h 5.0mph /  8km/h 83% 0.00in /  0mm
05:44 72.4 °F /  22.4 °C 67.3 °F /  19.6 °C 29.84in /  1010.4hPa ESE 3.0mph /  4.8km/h 4.0mph /  6.4km/h 84% 0.00in /  0mm
05:49 72.1 °F /  22.3 °C 67.0 °F /  19.4 °C 29.84in /  1010.4hPa SE 3.0mph /  4.8km/h 4.0mph /  6.4km/h 84% 0.00in /  0mm
05:54 71.9 °F /  22.2 °C 67.2 °F /  19.6 °C 29.84in /  1010.4hPa SE 1.0mph /  1.6km/h 4.0mph /  6.4km/h 85% 0.00in /  0mm
05:59 71.7 °F /  22.1 °C 66.9 °F /  19.4 °C 29.84in /  1010.4hPa ESE 5.0mph /  8km/h 5.0mph /  8km/h 85% 0.00in /  0mm
06:04 71.7 °F /  22.1 °C 66.9 °F /  19.4 °C 29.84in /  1010.4hPa SE 6.0mph /  9.7km/h 6.0mph /  9.7km/h 85% 0.00in /  0mm
06:09 71.6 °F /  22 °C 66.9 °F /  19.4 °C 29.85in /  1010.7hPa ESE 2.0mph /  3.2km/h 3.0mph /  4.8km/h 85% 0.00in /  0mm
06:14 71.5 °F /  21.9 °C 66.8 °F /  19.3 °C 29.85in /  1010.7hPa SE 2.0mph /  3.2km/h 3.0mph /  4.8km/h 85% 0.00in /  0mm
06:19 71.4 °F /  21.9 °C 67.0 °F /  19.4 °C 29.85in /  1010.7hPa SE 3.0mph /  4.8km/h 4.0mph /  6.4km/h 86% 0.00in /  0mm
06:24 71.4 °F /  21.9 °C 67.0 °F /  19.4 °C 29.85in /  1010.7hPa SE 3.0mph /  4.8km/h 6.0mph /  9.7km/h 86% 0.00in /  0mm
06:29 71.4 °F /  21.9 °C 67.0 °F /  19.4 °C 29.85in /  1010.7hPa SE 4.0mph /  6.4km/h 5.0mph /  8km/h 86% 0.00in /  0mm
06:34 71.5 °F /  21.9 °C 67.1 °F /  19.5 °C 29.85in /  1010.7hPa SE 5.0mph /  8km/h 7.0mph /  11.3km/h 86% 0.00in /  0mm
06:39 71.5 °F /  21.9 °C 67.1 °F /  19.5 °C 29.85in /  1010.7hPa SE 4.0mph /  6.4km/h 7.0mph /  11.3km/h 86% 0.00in /  0mm
06:44 71.6 °F /  22 °C 67.2 °F /  19.6 °C 29.85in /  1010.7hPa SE 5.0mph /  8km/h 7.0mph /  11.3km/h 86% 0.00in /  0mm
06:49 71.5 °F /  21.9 °C 67.1 °F /  19.5 °C 29.85in /  1010.7hPa SE 4.0mph /  6.4km/h 7.0mph /  11.3km/h 86% 0.00in /  0mm
06:54 71.6 °F /  22 °C 67.2 °F /  19.6 °C 29.84in /  1010.4hPa SE 5.0mph /  8km/h 7.0mph /  11.3km/h 86% 0.00in /  0mm
06:59 71.5 °F /  21.9 °C 67.1 °F /  19.5 °C 29.85in /  1010.7hPa SE 4.0mph /  6.4km/h 9.0mph /  14.5km/h 86% 0.00in /  0mm
07:04 71.5 °F /  21.9 °C 67.1 °F /  19.5 °C 29.84in /  1010.4hPa SE 7.0mph /  11.3km/h 8.0mph /  12.9km/h 86% 0.00in /  0mm
07:09 71.5 °F /  21.9 °C 67.4 °F /  19.7 °C 29.85in /  1010.7hPa ESE 6.0mph /  9.7km/h 9.0mph /  14.5km/h 87% 0.00in /  0mm
07:14 71.6 °F /  22 °C 67.5 °F /  19.7 °C 29.85in /  1010.7hPa SE 5.0mph /  8km/h 8.0mph /  12.9km/h 87% 0.00in /  0mm
07:19 71.7 °F /  22.1 °C 67.3 °F /  19.6 °C 29.84in /  1010.4hPa SE 6.0mph /  9.7km/h 8.0mph /  12.9km/h 86% 0.00in /  0mm
07:24 71.8 °F /  22.1 °C 67.4 °F /  19.7 °C 29.84in /  1010.4hPa SE 5.0mph /  8km/h 8.0mph /  12.9km/h 86% 0.00in /  0mm
07:29 71.9 °F /  22.2 °C 67.8 °F /  19.9 °C 29.84in /  1010.4hPa ESE 7.0mph /  11.3km/h 9.0mph /  14.5km/h 87% 0.00in /  0mm
07:34 71.9 °F /  22.2 °C 67.8 °F /  19.9 °C 29.84in /  1010.4hPa SE 5.0mph /  8km/h 7.0mph /  11.3km/h 87% 0.00in /  0mm
07:39 72.0 °F /  22.2 °C 67.9 °F /  19.9 °C 29.85in /  1010.7hPa ESE 4.0mph /  6.4km/h 7.0mph /  11.3km/h 87% 0.00in /  0mm
07:44 72.0 °F /  22.2 °C 67.9 °F /  19.9 °C 29.85in /  1010.7hPa SE 6.0mph /  9.7km/h 9.0mph /  14.5km/h 87% 0.00in /  0mm
07:49 72.2 °F /  22.3 °C 68.1 °F /  20.1 °C 29.85in /  1010.7hPa ESE 5.0mph /  8km/h 10.0mph /  16.1km/h 87% 0.00in /  0mm
07:54 72.4 °F /  22.4 °C 68.3 °F /  20.2 °C 29.85in /  1010.7hPa ESE 7.0mph /  11.3km/h 9.0mph /  14.5km/h 87% 0.00in /  0mm
07:59 72.8 °F /  22.7 °C 68.4 °F /  20.2 °C 29.85in /  1010.7hPa East 3.0mph /  4.8km/h 8.0mph /  12.9km/h 86% 0.00in /  0mm
08:04 73.2 °F /  22.9 °C 68.8 °F /  20.4 °C 29.85in /  1010.7hPa ESE 6.0mph /  9.7km/h 8.0mph /  12.9km/h 86% 0.00in /  0mm
08:09 73.5 °F /  23.1 °C 69.1 °F /  20.6 °C 29.85in /  1010.7hPa ESE 4.0mph /  6.4km/h 7.0mph /  11.3km/h 86% 0.00in /  0mm
08:14 74.0 °F /  23.3 °C 69.2 °F /  20.7 °C 29.86in /  1011.1hPa SE 5.0mph /  8km/h 8.0mph /  12.9km/h 85% 0.00in /  0mm
08:19 74.1 °F /  23.4 °C 69.3 °F /  20.7 °C 29.86in /  1011.1hPa SE 6.0mph /  9.7km/h 10.0mph /  16.1km/h 85% 0.00in /  0mm
08:24 74.0 °F /  23.3 °C 68.9 °F /  20.5 °C 29.86in /  1011.1hPa SE 5.0mph /  8km/h 8.0mph /  12.9km/h 84% 0.00in /  0mm
08:29 73.9 °F /  23.3 °C 69.1 °F /  20.6 °C 29.86in /  1011.1hPa ESE 7.0mph /  11.3km/h 8.0mph /  12.9km/h 85% 0.00in /  0mm
08:35 73.8 °F /  23.2 °C 69.0 °F /  20.6 °C 29.85in /  1010.7hPa ESE 7.0mph /  11.3km/h 11.0mph /  17.7km/h 85% 0.00in /  0mm
08:40 73.7 °F /  23.2 °C 68.9 °F /  20.5 °C 29.86in /  1011.1hPa ESE 5.0mph /  8km/h 8.0mph /  12.9km/h 85% 0.00in /  0mm
08:45 73.7 °F /  23.2 °C 69.3 °F /  20.7 °C 29.86in /  1011.1hPa ESE 9.0mph /  14.5km/h 10.0mph /  16.1km/h 86% 0.00in /  0mm
08:50 73.8 °F /  23.2 °C 69.0 °F /  20.6 °C 29.86in /  1011.1hPa SE 7.0mph /  11.3km/h 11.0mph /  17.7km/h 85% 0.00in /  0mm
08:55 73.8 °F /  23.2 °C 69.0 °F /  20.6 °C 29.87in /  1011.4hPa SSE 8.0mph /  12.9km/h 9.0mph /  14.5km/h 85% 0.00in /  0mm
09:00 73.8 °F /  23.2 °C 69.3 °F /  20.7 °C 29.86in /  1011.1hPa ESE 5.0mph /  8km/h 8.0mph /  12.9km/h 86% 0.00in /  0mm
09:05 73.9 °F /  23.3 °C 69.4 °F /  20.8 °C 29.86in /  1011.1hPa SE 6.0mph /  9.7km/h 9.0mph /  14.5km/h 86% 0.00in /  0mm
09:10 74.0 °F /  23.3 °C 69.6 °F /  20.9 °C 29.86in /  1011.1hPa SE 6.0mph /  9.7km/h 11.0mph /  17.7km/h 86% 0.00in /  0mm
09:15 74.0 °F /  23.3 °C 69.6 °F /  20.9 °C 29.86in /  1011.1hPa SE 5.0mph /  8km/h 9.0mph /  14.5km/h 86% 0.00in /  0mm
09:20 74.0 °F /  23.3 °C 69.6 °F /  20.9 °C 29.86in /  1011.1hPa SE 9.0mph /  14.5km/h 10.0mph /  16.1km/h 86% 0.00in /  0mm
09:25 74.1 °F /  23.4 °C 69.7 °F /  20.9 °C 29.87in /  1011.4hPa SE 3.0mph /  4.8km/h 7.0mph /  11.3km/h 86% 0.00in /  0mm
09:30 74.2 °F /  23.4 °C 69.8 °F /  21 °C 29.86in /  1011.1hPa SE 5.0mph /  8km/h 8.0mph /  12.9km/h 86% 0.00in /  0mm
09:35 74.3 °F /  23.5 °C 69.8 °F /  21 °C 29.86in /  1011.1hPa SE 3.0mph /  4.8km/h 6.0mph /  9.7km/h 86% 0.00in /  0mm
09:40 74.4 °F /  23.6 °C 69.9 °F /  21.1 °C 29.86in /  1011.1hPa South 4.0mph /  6.4km/h 6.0mph /  9.7km/h 86% 0.00in /  0mm
09:45 74.4 °F /  23.6 °C 69.9 °F /  21.1 °C 29.86in /  1011.1hPa SSE 5.0mph /  8km/h 8.0mph /  12.9km/h 86% 0.00in /  0mm
09:46 74.4 °F /  23.6 °C 69.9 °F /  21.1 °C 29.86in /  1011.1hPa SSE 4.0mph /  6.4km/h 6.0mph /  9.7km/h 86% 0.00in /  0mm
09:51 74.4 °F /  23.6 °C 69.9 °F /  21.1 °C 29.87in /  1011.4hPa SSE 7.0mph /  11.3km/h 7.0mph /  11.3km/h 86% 0.00in /  0mm
09:56 74.4 °F /  23.6 °C 69.9 °F /  21.1 °C 29.87in /  1011.4hPa SW 4.0mph /  6.4km/h 5.0mph /  8km/h 86% 0.00in /  0mm
10:01 74.4 °F /  23.6 °C 69.9 °F /  21.1 °C 29.88in /  1011.7hPa WNW 4.0mph /  6.4km/h 8.0mph /  12.9km/h 86% 0.00in /  0mm
10:06 74.2 °F /  23.4 °C 70.1 °F /  21.2 °C 29.89in /  1012.1hPa WNW 3.0mph /  4.8km/h 6.0mph /  9.7km/h 87% 0.00in /  0mm
10:11 74.2 °F /  23.4 °C 70.4 °F /  21.3 °C 29.88in /  1011.7hPa WNW 4.0mph /  6.4km/h 6.0mph /  9.7km/h 88% 0.00in /  0mm
10:16 73.7 °F /  23.2 °C 69.6 °F /  20.9 °C 29.88in /  1011.7hPa NW 5.0mph /  8km/h 10.0mph /  16.1km/h 87% 0.00in /  0mm
10:21 73.5 °F /  23.1 °C 69.7 °F /  20.9 °C 29.88in /  1011.7hPa West 3.0mph /  4.8km/h 3.0mph /  4.8km/h 88% 0.00in /  0mm
10:26 73.7 °F /  23.2 °C 69.9 °F /  21.1 °C 29.88in /  1011.7hPa WSW 1.0mph /  1.6km/h 3.0mph /  4.8km/h 88% 0.00in /  0mm
10:31 73.8 °F /  23.2 °C 70.0 °F /  21.1 °C 29.87in /  1011.4hPa NW 1.0mph /  1.6km/h 6.0mph /  9.7km/h 88% 0.00in /  0mm
10:36 74.1 °F /  23.4 °C 70.3 °F /  21.3 °C 29.87in /  1011.4hPa West 2.0mph /  3.2km/h 5.0mph /  8km/h 88% 0.00in /  0mm
10:41 74.2 °F /  23.4 °C 70.1 °F /  21.2 °C 29.87in /  1011.4hPa WNW 3.0mph /  4.8km/h 4.0mph /  6.4km/h 87% 0.00in /  0mm
10:46 74.2 °F /  23.4 °C 70.1 °F /  21.2 °C 29.87in /  1011.4hPa West 3.0mph /  4.8km/h 5.0mph /  8km/h 87% 0.00in /  0mm
10:51 74.6 °F /  23.7 °C 70.1 °F /  21.2 °C 29.86in /  1011.1hPa WNW 2.0mph /  3.2km/h 2.0mph /  3.2km/h 86% 0.00in /  0mm
10:56 75.2 °F /  24 °C 70.4 °F /  21.3 °C 29.86in /  1011.1hPa WSW 2.0mph /  3.2km/h 3.0mph /  4.8km/h 85% 0.00in /  0mm
11:01 75.6 °F /  24.2 °C 70.8 °F /  21.6 °C 29.87in /  1011.4hPa SW 3.0mph /  4.8km/h 3.0mph /  4.8km/h 85% 0.00in /  0mm
11:06 76.2 °F /  24.6 °C 70.7 °F /  21.5 °C 29.86in /  1011.1hPa ESE 1.0mph /  1.6km/h 3.0mph /  4.8km/h 83% 0.00in /  0mm
11:12 76.6 °F /  24.8 °C 70.7 °F /  21.5 °C 29.86in /  1011.1hPa SW 1.0mph /  1.6km/h 3.0mph /  4.8km/h 82% 0.00in /  0mm
11:17 77.1 °F /  25.1 °C 71.2 °F /  21.8 °C 29.86in /  1011.1hPa WNW 2.0mph /  3.2km/h 2.0mph /  3.2km/h 82% 0.00in /  0mm
11:22 77.2 °F /  25.1 °C 70.9 °F /  21.6 °C 29.86in /  1011.1hPa SSE 3.0mph /  4.8km/h 4.0mph /  6.4km/h 81% 0.00in /  0mm
11:27 77.4 °F /  25.2 °C 70.8 °F /  21.6 °C 29.86in /  1011.1hPa SW 2.0mph /  3.2km/h 6.0mph /  9.7km/h 80% 0.00in /  0mm
11:32 77.6 °F /  25.3 °C 71.3 °F /  21.8 °C 29.86in /  1011.1hPa SW 3.0mph /  4.8km/h 4.0mph /  6.4km/h 81% 0.00in /  0mm
11:37 77.9 °F /  25.5 °C 71.2 °F /  21.8 °C 29.86in /  1011.1hPa WSW 3.0mph /  4.8km/h 5.0mph /  8km/h 80% 0.00in /  0mm
11:42 78.1 °F /  25.6 °C 71.4 °F /  21.9 °C 29.86in /  1011.1hPa SSW 2.0mph /  3.2km/h 4.0mph /  6.4km/h 80% 0.00in /  0mm
11:47 78.4 °F /  25.8 °C 70.6 °F /  21.4 °C 29.86in /  1011.1hPa SSE 3.0mph /  4.8km/h 4.0mph /  6.4km/h 77% 0.00in /  0mm
11:52 78.8 °F /  26 °C 71.4 °F /  21.9 °C 29.86in /  1011.1hPa SW 4.0mph /  6.4km/h 5.0mph /  8km/h 78% 0.00in /  0mm
11:57 78.8 °F /  26 °C 70.6 °F /  21.4 °C 29.85in /  1010.7hPa South 3.0mph /  4.8km/h 4.0mph /  6.4km/h 76% 0.00in /  0mm
12:02 79.1 °F /  26.2 °C 70.5 °F /  21.4 °C 29.85in /  1010.7hPa SW 2.0mph /  3.2km/h 3.0mph /  4.8km/h 75% 0.00in /  0mm
12:07 79.4 °F /  26.3 °C 71.6 °F /  22 °C 29.85in /  1010.7hPa SSW 3.0mph /  4.8km/h 5.0mph /  8km/h 77% 0.00in /  0mm
12:12 79.6 °F /  26.4 °C 70.2 °F /  21.2 °C 29.85in /  1010.7hPa SSW 3.0mph /  4.8km/h 8.0mph /  12.9km/h 73% 0.00in /  0mm
12:17 79.6 °F /  26.4 °C 70.2 °F /  21.2 °C 29.85in /  1010.7hPa WNW 6.0mph /  9.7km/h 6.0mph /  9.7km/h 73% 0.00in /  0mm
12:22 79.2 °F /  26.2 °C 70.6 °F /  21.4 °C 29.84in /  1010.4hPa WSW 1.0mph /  1.6km/h 5.0mph /  8km/h 75% 0.00in /  0mm
12:27 79.5 °F /  26.4 °C 71.3 °F /  21.8 °C 29.84in /  1010.4hPa WSW 4.0mph /  6.4km/h 4.0mph /  6.4km/h 76% 0.00in /  0mm
12:32 79.7 °F /  26.5 °C 71.1 °F /  21.7 °C 29.84in /  1010.4hPa SSW 1.0mph /  1.6km/h 3.0mph /  4.8km/h 75% 0.00in /  0mm
12:37 80.6 °F /  27 °C 71.6 °F /  22 °C 29.84in /  1010.4hPa SSW 4.0mph /  6.4km/h 5.0mph /  8km/h 74% 0.00in /  0mm
12:42 80.3 °F /  26.8 °C 70.9 °F /  21.6 °C 29.84in /  1010.4hPa WSW 1.0mph /  1.6km/h 5.0mph /  8km/h 73% 0.00in /  0mm
12:47 80.6 °F /  27 °C 71.9 °F /  22.2 °C 29.84in /  1010.4hPa West 2.0mph /  3.2km/h 5.0mph /  8km/h 75% 0.00in /  0mm
12:52 80.3 °F /  26.8 °C 71.3 °F /  21.8 °C 29.84in /  1010.4hPa SW 6.0mph /  9.7km/h 6.0mph /  9.7km/h 74% 0.00in /  0mm
12:57 80.4 °F /  26.9 °C 71.4 °F /  21.9 °C 29.84in /  1010.4hPa SW 3.0mph /  4.8km/h 5.0mph /  8km/h 74% 0.00in /  0mm
13:02 80.9 °F /  27.2 °C 70.6 °F /  21.4 °C 29.83in /  1010hPa ENE 2.0mph /  3.2km/h 4.0mph /  6.4km/h 71% 0.00in /  0mm
13:07 81.5 °F /  27.5 °C 72.0 °F /  22.2 °C 29.83in /  1010hPa Calm   4.0mph /  6.4km/h 73% 0.00in /  0mm
13:12 81.9 °F /  27.7 °C 71.2 °F /  21.8 °C 29.83in /  1010hPa NE 1.0mph /  1.6km/h 4.0mph /  6.4km/h 70% 0.00in /  0mm
13:17 81.9 °F /  27.7 °C 71.2 °F /  21.8 °C 29.83in /  1010hPa WNW 2.0mph /  3.2km/h 6.0mph /  9.7km/h 70% 0.00in /  0mm
13:22 81.4 °F /  27.4 °C 70.7 °F /  21.5 °C 29.83in /  1010hPa WNW 3.0mph /  4.8km/h 5.0mph /  8km/h 70% 0.00in /  0mm
13:27 81.7 °F /  27.6 °C 71.4 °F /  21.9 °C 29.83in /  1010hPa WSW 1.0mph /  1.6km/h 5.0mph /  8km/h 71% 0.00in /  0mm
13:32 82.3 °F /  27.9 °C 71.1 °F /  21.7 °C 29.83in /  1010hPa Calm   3.0mph /  4.8km/h 69% 0.00in /  0mm
13:37 83.1 °F /  28.4 °C 72.3 °F /  22.4 °C 29.83in /  1010hPa Calm   2.0mph /  3.2km/h 70% 0.00in /  0mm
13:42 83.2 °F /  28.4 °C 71.6 °F /  22 °C 29.83in /  1010hPa NNE 1.0mph /  1.6km/h 3.0mph /  4.8km/h 68% 0.00in /  0mm
13:48 82.8 °F /  28.2 °C 71.6 °F /  22 °C 29.82in /  1009.7hPa North 2.0mph /  3.2km/h 4.0mph /  6.4km/h 69% 0.00in /  0mm
13:53 82.8 °F /  28.2 °C 72.0 °F /  22.2 °C 29.82in /  1009.7hPa Calm   4.0mph /  6.4km/h 70% 0.00in /  0mm
13:58 83.2 °F /  28.4 °C 72.0 °F /  22.2 °C 29.82in /  1009.7hPa SSW 1.0mph /  1.6km/h 3.0mph /  4.8km/h 69% 0.00in /  0mm
14:03 83.6 °F /  28.7 °C 71.5 °F /  21.9 °C 29.82in /  1009.7hPa Calm   3.0mph /  4.8km/h 67% 0.00in /  0mm
14:08 83.9 °F /  28.8 °C 71.8 °F /  22.1 °C 29.82in /  1009.7hPa WNW 1.0mph /  1.6km/h 4.0mph /  6.4km/h 67% 0.00in /  0mm
14:13 84.3 °F /  29.1 °C 71.7 °F /  22.1 °C 29.81in /  1009.4hPa SE 1.0mph /  1.6km/h 3.0mph /  4.8km/h 66% 0.00in /  0mm
14:18 84.6 °F /  29.2 °C 72.0 °F /  22.2 °C 29.81in /  1009.4hPa SSW 2.0mph /  3.2km/h 5.0mph /  8km/h 66% 0.00in /  0mm
14:23 84.5 °F /  29.2 °C 71.4 °F /  21.9 °C 29.81in /  1009.4hPa ENE 1.0mph /  1.6km/h 4.0mph /  6.4km/h 65% 0.00in /  0mm
14:28 84.4 °F /  29.1 °C 71.8 °F /  22.1 °C 29.81in /  1009.4hPa Calm   4.0mph /  6.4km/h 66% 0.00in /  0mm
14:33 85.1 °F /  29.5 °C 71.1 °F /  21.7 °C 29.81in /  1009.4hPa ESE 1.0mph /  1.6km/h 2.0mph /  3.2km/h 63% 0.00in /  0mm
14:38 85.7 °F /  29.8 °C 70.7 °F /  21.5 °C 29.80in /  1009hPa Calm   3.0mph /  4.8km/h 61% 0.00in /  0mm
14:43 86.2 °F /  30.1 °C 70.7 °F /  21.5 °C 29.80in /  1009hPa Calm   1.0mph /  1.6km/h 60% 0.00in /  0mm
14:48 86.1 °F /  30.1 °C 70.6 °F /  21.4 °C 29.80in /  1009hPa NE 4.0mph /  6.4km/h 5.0mph /  8km/h 60% 0.00in /  0mm
14:53 85.4 °F /  29.7 °C 70.4 °F /  21.3 °C 29.80in /  1009hPa NE 1.0mph /  1.6km/h 4.0mph /  6.4km/h 61% 0.00in /  0mm
14:58 85.7 °F /  29.8 °C 72.6 °F /  22.6 °C 29.80in /  1009hPa NE 3.0mph /  4.8km/h 3.0mph /  4.8km/h 65% 0.00in /  0mm
15:03 85.7 °F /  29.8 °C 71.7 °F /  22.1 °C 29.80in /  1009hPa NNW 2.0mph /  3.2km/h 6.0mph /  9.7km/h 63% 0.00in /  0mm
15:08 85.9 °F /  29.9 °C 72.3 °F /  22.4 °C 29.79in /  1008.7hPa NE 5.0mph /  8km/h 5.0mph /  8km/h 64% 0.00in /  0mm
15:13 85.7 °F /  29.8 °C 72.1 °F /  22.3 °C 29.79in /  1008.7hPa WNW 3.0mph /  4.8km/h 5.0mph /  8km/h 64% 0.00in /  0mm
15:18 85.6 °F /  29.8 °C 71.1 °F /  21.7 °C 29.79in /  1008.7hPa North 2.0mph /  3.2km/h 7.0mph /  11.3km/h 62% 0.00in /  0mm
15:23 85.5 °F /  29.7 °C 69.6 °F /  20.9 °C 29.79in /  1008.7hPa NE 1.0mph /  1.6km/h 6.0mph /  9.7km/h 59% 0.00in /  0mm
15:28 85.8 °F /  29.9 °C 70.3 °F /  21.3 °C 29.79in /  1008.7hPa Calm   4.0mph /  6.4km/h 60% 0.00in /  0mm
15:33 86.3 °F /  30.2 °C 70.8 °F /  21.6 °C 29.78in /  1008.4hPa SE 1.0mph /  1.6km/h 3.0mph /  4.8km/h 60% 0.00in /  0mm
15:39 86.9 °F /  30.5 °C 70.4 °F /  21.3 °C 29.78in /  1008.4hPa NNW 1.0mph /  1.6km/h 4.0mph /  6.4km/h 58% 0.00in /  0mm
15:44 87.0 °F /  30.6 °C 70.4 °F /  21.3 °C 29.78in /  1008.4hPa North 1.0mph /  1.6km/h 4.0mph /  6.4km/h 58% 0.00in /  0mm
15:49 87.0 °F /  30.6 °C 69.4 °F /  20.8 °C 29.78in /  1008.4hPa NNE 3.0mph /  4.8km/h 6.0mph /  9.7km/h 56% 0.00in /  0mm
15:54 86.7 °F /  30.4 °C 68.6 °F /  20.3 °C 29.78in /  1008.4hPa North 5.0mph /  8km/h 7.0mph /  11.3km/h 55% 0.00in /  0mm
15:59 86.4 °F /  30.2 °C 69.9 °F /  21.1 °C 29.78in /  1008.4hPa NNE 3.0mph /  4.8km/h 5.0mph /  8km/h 58% 0.00in /  0mm
16:04 86.6 °F /  30.3 °C 69.6 °F /  20.9 °C 29.78in /  1008.4hPa SSE 1.0mph /  1.6km/h 3.0mph /  4.8km/h 57% 0.00in /  0mm
16:09 87.3 °F /  30.7 °C 70.2 °F /  21.2 °C 29.78in /  1008.4hPa WSW 3.0mph /  4.8km/h 4.0mph /  6.4km/h 57% 0.00in /  0mm
16:14 86.8 °F /  30.4 °C 69.2 °F /  20.7 °C 29.77in /  1008hPa NNW 2.0mph /  3.2km/h 4.0mph /  6.4km/h 56% 0.00in /  0mm
16:16 86.5 °F /  30.3 °C 69.5 °F /  20.8 °C 29.77in /  1008hPa WNW 2.0mph /  3.2km/h 4.0mph /  6.4km/h 57% 0.00in /  0mm
16:21 86.2 °F /  30.1 °C 68.7 °F /  20.4 °C 29.78in /  1008.4hPa WNW 2.0mph /  3.2km/h 4.0mph /  6.4km/h 56% 0.00in /  0mm
16:22 86.2 °F /  30.1 °C 69.2 °F /  20.7 °C 29.77in /  1008hPa NNW 2.0mph /  3.2km/h 3.0mph /  4.8km/h 57% 0.00in /  0mm
16:27 86.8 °F /  30.4 °C 70.3 °F /  21.3 °C 29.77in /  1008hPa NE 5.0mph /  8km/h 5.0mph /  8km/h 58% 0.00in /  0mm
16:32 86.8 °F /  30.4 °C 70.3 °F /  21.3 °C 29.77in /  1008hPa NNW 3.0mph /  4.8km/h 6.0mph /  9.7km/h 58% 0.00in /  0mm
16:37 87.0 °F /  30.6 °C 69.4 °F /  20.8 °C 29.77in /  1008hPa NE 4.0mph /  6.4km/h 7.0mph /  11.3km/h 56% 0.00in /  0mm
16:39 87.0 °F /  30.6 °C 69.4 °F /  20.8 °C 29.77in /  1008hPa NNW 1.0mph /  1.6km/h 7.0mph /  11.3km/h 56% 0.00in /  0mm
16:42 87.2 °F /  30.7 °C 70.6 °F /  21.4 °C 29.77in /  1008hPa WNW 4.0mph /  6.4km/h 4.0mph /  6.4km/h 58% 0.00in /  0mm
16:47 87.4 °F /  30.8 °C 69.8 °F /  21 °C 29.77in /  1008hPa NW 1.0mph /  1.6km/h 3.0mph /  4.8km/h 56% 0.00in /  0mm
16:52 87.6 °F /  30.9 °C 68.9 °F /  20.5 °C 29.77in /  1008hPa WNW 5.0mph /  8km/h 8.0mph /  12.9km/h 54% 0.00in /  0mm
16:57 87.4 °F /  30.8 °C 69.8 °F /  21 °C 29.77in /  1008hPa WNW 4.0mph /  6.4km/h 6.0mph /  9.7km/h 56% 0.00in /  0mm
17:02 87.4 °F /  30.8 °C 69.3 °F /  20.7 °C 29.77in /  1008hPa NW 3.0mph /  4.8km/h 5.0mph /  8km/h 55% 0.00in /  0mm
17:07 87.6 °F /  30.9 °C 69.4 °F /  20.8 °C 29.77in /  1008hPa WNW 3.0mph /  4.8km/h 6.0mph /  9.7km/h 55% 0.00in /  0mm
17:12 87.8 °F /  31 °C 69.6 °F /  20.9 °C 29.76in /  1007.7hPa West 5.0mph /  8km/h 8.0mph /  12.9km/h 55% 0.00in /  0mm
17:17 87.4 °F /  30.8 °C 69.3 °F /  20.7 °C 29.76in /  1007.7hPa WNW 6.0mph /  9.7km/h 7.0mph /  11.3km/h 55% 0.00in /  0mm
17:22 86.8 °F /  30.4 °C 68.2 °F /  20.1 °C 29.76in /  1007.7hPa NW 6.0mph /  9.7km/h 11.0mph /  17.7km/h 54% 0.00in /  0mm
17:27 86.9 °F /  30.5 °C 71.3 °F /  21.8 °C 29.76in /  1007.7hPa WSW 2.0mph /  3.2km/h 4.0mph /  6.4km/h 60% 0.00in /  0mm
17:32 87.3 °F /  30.7 °C 70.2 °F /  21.2 °C 29.76in /  1007.7hPa WSW 4.0mph /  6.4km/h 8.0mph /  12.9km/h 57% 0.00in /  0mm
17:37 87.3 °F /  30.7 °C 69.2 °F /  20.7 °C 29.76in /  1007.7hPa NW 5.0mph /  8km/h 8.0mph /  12.9km/h 55% 0.00in /  0mm
17:42 87.2 °F /  30.7 °C 70.1 °F /  21.2 °C 29.75in /  1007.3hPa West 5.0mph /  8km/h 5.0mph /  8km/h 57% 0.00in /  0mm
17:43 87.1 °F /  30.6 °C 69.5 °F /  20.8 °C 29.75in /  1007.3hPa NNW 6.0mph /  9.7km/h 6.0mph /  9.7km/h 56% 0.00in /  0mm
17:48 86.5 °F /  30.3 °C 70.0 °F /  21.1 °C 29.75in /  1007.3hPa WSW 5.0mph /  8km/h 6.0mph /  9.7km/h 58% 0.00in /  0mm
17:53 86.2 °F /  30.1 °C 70.2 °F /  21.2 °C 29.75in /  1007.3hPa WNW 4.0mph /  6.4km/h 5.0mph /  8km/h 59% 0.00in /  0mm
17:58 86.0 °F /  30 °C 70.5 °F /  21.4 °C 29.75in /  1007.3hPa West 3.0mph /  4.8km/h 3.0mph /  4.8km/h 60% 0.00in /  0mm
18:03 86.4 °F /  30.2 °C 71.4 °F /  21.9 °C 29.75in /  1007.3hPa WNW 3.0mph /  4.8km/h 3.0mph /  4.8km/h 61% 0.00in /  0mm
18:08 86.4 °F /  30.2 °C 70.9 °F /  21.6 °C 29.76in /  1007.7hPa WSW 2.0mph /  3.2km/h 4.0mph /  6.4km/h 60% 0.00in /  0mm
18:13 86.1 °F /  30.1 °C 70.6 °F /  21.4 °C 29.75in /  1007.3hPa WNW 4.0mph /  6.4km/h 5.0mph /  8km/h 60% 0.00in /  0mm
18:16 86.2 °F /  30.1 °C 69.2 °F /  20.7 °C 29.75in /  1007.3hPa WNW 4.0mph /  6.4km/h 5.0mph /  8km/h 57% 0.00in /  0mm
18:21 86.6 °F /  30.3 °C 72.0 °F /  22.2 °C 29.75in /  1007.3hPa WNW 6.0mph /  9.7km/h 6.0mph /  9.7km/h 62% 0.00in /  0mm
18:26 86.4 °F /  30.2 °C 69.9 °F /  21.1 °C 29.75in /  1007.3hPa NW 3.0mph /  4.8km/h 7.0mph /  11.3km/h 58% 0.00in /  0mm
18:31 86.6 °F /  30.3 °C 70.1 °F /  21.2 °C 29.75in /  1007.3hPa WNW 2.0mph /  3.2km/h 6.0mph /  9.7km/h 58% 0.00in /  0mm
18:36 86.3 °F /  30.2 °C 69.3 °F /  20.7 °C 29.75in /  1007.3hPa NW 5.0mph /  8km/h 8.0mph /  12.9km/h 57% 0.00in /  0mm
18:41 86.1 °F /  30.1 °C 69.6 °F /  20.9 °C 29.75in /  1007.3hPa WNW 4.0mph /  6.4km/h 5.0mph /  8km/h 58% 0.00in /  0mm
18:42 86.1 °F /  30.1 °C 69.6 °F /  20.9 °C 29.75in /  1007.3hPa WNW 4.0mph /  6.4km/h 6.0mph /  9.7km/h 58% 0.00in /  0mm
18:47 85.8 °F /  29.9 °C 69.8 °F /  21 °C 29.75in /  1007.3hPa WNW 4.0mph /  6.4km/h 6.0mph /  9.7km/h 59% 0.00in /  0mm
18:53 85.4 °F /  29.7 °C 71.4 °F /  21.9 °C 29.75in /  1007.3hPa NW 1.0mph /  1.6km/h 4.0mph /  6.4km/h 63% 0.00in /  0mm
18:58 85.4 °F /  29.7 °C 70.9 °F /  21.6 °C 29.75in /  1007.3hPa NW 3.0mph /  4.8km/h 4.0mph /  6.4km/h 62% 0.00in /  0mm
19:03 85.0 °F /  29.4 °C 71.0 °F /  21.7 °C 29.75in /  1007.3hPa NW 2.0mph /  3.2km/h 4.0mph /  6.4km/h 63% 0.00in /  0mm
19:08 84.5 °F /  29.2 °C 70.5 °F /  21.4 °C 29.74in /  1007hPa WNW 3.0mph /  4.8km/h 3.0mph /  4.8km/h 63% 0.00in /  0mm
19:13 84.0 °F /  28.9 °C 70.5 °F /  21.4 °C 29.74in /  1007hPa WNW 2.0mph /  3.2km/h 3.0mph /  4.8km/h 64% 0.00in /  0mm
19:18 83.9 °F /  28.8 °C 70.9 °F /  21.6 °C 29.74in /  1007hPa NW 3.0mph /  4.8km/h 3.0mph /  4.8km/h 65% 0.00in /  0mm
19:23 83.9 °F /  28.8 °C 70.9 °F /  21.6 °C 29.74in /  1007hPa WNW 1.0mph /  1.6km/h 3.0mph /  4.8km/h 65% 0.00in /  0mm
19:28 84.2 °F /  29 °C 71.6 °F /  22 °C 29.74in /  1007hPa WNW 1.0mph /  1.6km/h 3.0mph /  4.8km/h 66% 0.00in /  0mm
19:33 84.6 °F /  29.2 °C 71.1 °F /  21.7 °C 29.74in /  1007hPa Calm   2.0mph /  3.2km/h 64% 0.00in /  0mm
19:38 84.8 °F /  29.3 °C 71.3 °F /  21.8 °C 29.75in /  1007.3hPa WNW 1.0mph /  1.6km/h 2.0mph /  3.2km/h 64% 0.00in /  0mm
19:43 85.0 °F /  29.4 °C 72.4 °F /  22.4 °C 29.74in /  1007hPa Calm   1.0mph /  1.6km/h 66% 0.00in /  0mm
19:48 85.1 °F /  29.5 °C 71.6 °F /  22 °C 29.75in /  1007.3hPa WNW 1.0mph /  1.6km/h 1.0mph /  1.6km/h 64% 0.00in /  0mm
19:53 84.8 °F /  29.3 °C 71.7 °F /  22.1 °C 29.75in /  1007.3hPa NW 1.0mph /  1.6km/h 2.0mph /  3.2km/h 65% 0.00in /  0mm
19:58 84.2 °F /  29 °C 71.2 °F /  21.8 °C 29.75in /  1007.3hPa WNW 1.0mph /  1.6km/h 2.0mph /  3.2km/h 65% 0.00in /  0mm
20:03 83.5 °F /  28.6 °C 71.8 °F /  22.1 °C 29.75in /  1007.3hPa NW 1.0mph /  1.6km/h 1.0mph /  1.6km/h 68% 0.00in /  0mm
20:08 82.8 °F /  28.2 °C 71.6 °F /  22 °C 29.76in /  1007.7hPa NW 1.0mph /  1.6km/h 1.0mph /  1.6km/h 69% 0.00in /  0mm
20:13 82.2 °F /  27.9 °C 72.3 °F /  22.4 °C 29.76in /  1007.7hPa NW 1.0mph /  1.6km/h 2.0mph /  3.2km/h 72% 0.00in /  0mm
20:18 81.3 °F /  27.4 °C 72.2 °F /  22.3 °C 29.77in /  1008hPa NNW 2.0mph /  3.2km/h 2.0mph /  3.2km/h 74% 0.00in /  0mm
20:23 80.2 °F /  26.8 °C 72.3 °F /  22.4 °C 29.80in /  1009hPa North 12.0mph /  19.3km/h 12.0mph /  19.3km/h 77% 0.00in /  0mm
20:28 75.5 °F /  24.2 °C 64.6 °F /  18.1 °C 29.81in /  1009.4hPa NNW 24.0mph /  38.6km/h 31.0mph /  49.9km/h 69% 0.00in /  0mm
20:33 71.6 °F /  22 °C 64.8 °F /  18.2 °C 29.83in /  1010hPa NW 15.0mph /  24.1km/h 22.0mph /  35.4km/h 79% 0.00in /  0mm
20:38 68.0 °F /  20 °C 63.7 °F /  17.6 °C 29.83in /  1010hPa NW 14.0mph /  22.5km/h 28.0mph /  45.1km/h 86% 0.00in /  0mm
20:43 66.6 °F /  19.2 °C 62.6 °F /  17 °C 29.83in /  1010hPa North 12.0mph /  19.3km/h 30.0mph /  48.3km/h 87% 0.00in /  0mm
20:48 66.6 °F /  19.2 °C 62.9 °F /  17.2 °C 29.83in /  1010hPa NW 7.0mph /  11.3km/h 17.0mph /  27.4km/h 88% 0.00in /  0mm
20:53 66.5 °F /  19.2 °C 62.8 °F /  17.1 °C 29.83in /  1010hPa North 4.0mph /  6.4km/h 10.0mph /  16.1km/h 88% 0.00in /  0mm
20:58 66.4 °F /  19.1 °C 63.1 °F /  17.3 °C 29.82in /  1009.7hPa NNW 7.0mph /  11.3km/h 9.0mph /  14.5km/h 89% 0.40in /  10.16mm
21:03 66.1 °F /  18.9 °C 63.1 °F /  17.3 °C 29.82in /  1009.7hPa North 7.0mph /  11.3km/h 7.0mph /  11.3km/h 90% 0.34in /  8.64mm
21:08 65.8 °F /  18.8 °C 63.1 °F /  17.3 °C 29.82in /  1009.7hPa North 9.0mph /  14.5km/h 10.0mph /  16.1km/h 91% 0.28in /  7.11mm
21:13 65.6 °F /  18.7 °C 63.2 °F /  17.3 °C 29.81in /  1009.4hPa NNE 8.0mph /  12.9km/h 8.0mph /  12.9km/h 92% 0.21in /  5.33mm
21:19 65.5 °F /  18.6 °C 63.1 °F /  17.3 °C 29.80in /  1009hPa ENE 5.0mph /  8km/h 8.0mph /  12.9km/h 92% 1.27in /  32.26mm
21:24 65.5 °F /  18.6 °C 63.1 °F /  17.3 °C 29.80in /  1009hPa NE 7.0mph /  11.3km/h 9.0mph /  14.5km/h 92% 0.16in /  4.06mm
21:29 65.5 °F /  18.6 °C 63.1 °F /  17.3 °C 29.81in /  1009.4hPa SE 1.0mph /  1.6km/h 4.0mph /  6.4km/h 92% 0.08in /  2.03mm
21:34 65.5 °F /  18.6 °C 63.4 °F /  17.4 °C 29.82in /  1009.7hPa North 1.0mph /  1.6km/h 2.0mph /  3.2km/h 93% 0.12in /  3.05mm
21:39 65.5 °F /  18.6 °C 63.4 °F /  17.4 °C 29.81in /  1009.4hPa South 4.0mph /  6.4km/h 5.0mph /  8km/h 93% 0.30in /  7.62mm
21:44 65.4 °F /  18.6 °C 63.3 °F /  17.4 °C 29.81in /  1009.4hPa ESE 5.0mph /  8km/h 7.0mph /  11.3km/h 93% 0.09in /  2.29mm
21:49 65.5 °F /  18.6 °C 63.4 °F /  17.4 °C 29.80in /  1009hPa NNE 3.0mph /  4.8km/h 4.0mph /  6.4km/h 93% 0.05in /  1.27mm
21:54 65.4 °F /  18.6 °C 63.3 °F /  17.4 °C 29.80in /  1009hPa NNE 2.0mph /  3.2km/h 5.0mph /  8km/h 93% 0.00in /  0mm
21:59 65.3 °F /  18.5 °C 63.2 °F /  17.3 °C 29.80in /  1009hPa NW 1.0mph /  1.6km/h 3.0mph /  4.8km/h 93% 0.00in /  0mm
22:04 65.2 °F /  18.4 °C 63.4 °F /  17.4 °C 29.81in /  1009.4hPa SSW 1.0mph /  1.6km/h 1.0mph /  1.6km/h 94% 0.00in /  0mm
22:09 65.2 °F /  18.4 °C 63.4 °F /  17.4 °C 29.80in /  1009hPa SSE 2.0mph /  3.2km/h 2.0mph /  3.2km/h 94% 0.00in /  0mm
22:14 65.2 °F /  18.4 °C 63.4 °F /  17.4 °C 29.80in /  1009hPa Calm   3.0mph /  4.8km/h 94% 0.00in /  0mm
22:19 65.2 °F /  18.4 °C 63.4 °F /  17.4 °C 29.80in /  1009hPa Calm   1.0mph /  1.6km/h 94% 0.00in /  0mm
22:24 65.2 °F /  18.4 °C 63.4 °F /  17.4 °C 29.80in /  1009hPa SSW 1.0mph /  1.6km/h 3.0mph /  4.8km/h 94% 0.00in /  0mm
22:29 65.3 °F /  18.5 °C 63.5 °F /  17.5 °C 29.80in /  1009hPa Calm   4.0mph /  6.4km/h 94% 0.00in /  0mm
22:34 65.4 °F /  18.6 °C 63.6 °F /  17.6 °C 29.80in /  1009hPa Calm   1.0mph /  1.6km/h 94% 0.00in /  0mm
22:39 65.4 °F /  18.6 °C 63.6 °F /  17.6 °C 29.80in /  1009hPa Calm   1.0mph /  1.6km/h 94% 0.00in /  0mm
22:44 65.3 °F /  18.5 °C 63.5 °F /  17.5 °C 29.80in /  1009hPa WNW 1.0mph /  1.6km/h 1.0mph /  1.6km/h 94% 0.00in /  0mm
22:49 65.3 °F /  18.5 °C 63.5 °F /  17.5 °C 29.80in /  1009hPa NNW 2.0mph /  3.2km/h 2.0mph /  3.2km/h 94% 0.00in /  0mm
22:54 65.3 °F /  18.5 °C 63.5 °F /  17.5 °C 29.80in /  1009hPa NNW 1.0mph /  1.6km/h 2.0mph /  3.2km/h 94% 0.00in /  0mm
22:59 65.2 °F /  18.4 °C 63.4 °F /  17.4 °C 29.80in /  1009hPa Calm   1.0mph /  1.6km/h 94% 0.00in /  0mm
23:04 65.2 °F /  18.4 °C 63.4 °F /  17.4 °C 29.80in /  1009hPa Calm     94% 0.00in /  0mm
23:09 65.2 °F /  18.4 °C 63.4 °F /  17.4 °C 29.80in /  1009hPa North 1.0mph /  1.6km/h 1.0mph /  1.6km/h 94% 0.00in /  0mm
23:14 65.2 °F /  18.4 °C 63.4 °F /  17.4 °C 29.80in /  1009hPa Calm     94% 0.00in /  0mm
23:19 65.2 °F /  18.4 °C 63.4 °F /  17.4 °C 29.80in /  1009hPa North 1.0mph /  1.6km/h 1.0mph /  1.6km/h 94% 0.00in /  0mm
23:24 65.1 °F /  18.4 °C 63.3 °F /  17.4 °C 29.80in /  1009hPa North 1.0mph /  1.6km/h 1.0mph /  1.6km/h 94% 0.00in /  0mm
23:29 65.1 °F /  18.4 °C 63.3 °F /  17.4 °C 29.80in /  1009hPa North 1.0mph /  1.6km/h 1.0mph /  1.6km/h 94% 0.00in /  0mm
23:34 65.0 °F /  18.3 °C 63.2 °F /  17.3 °C 29.80in /  1009hPa NNW 1.0mph /  1.6km/h 1.0mph /  1.6km/h 94% 0.00in /  0mm
23:39 65.0 °F /  18.3 °C 63.2 °F /  17.3 °C 29.80in /  1009hPa NW 1.0mph /  1.6km/h 2.0mph /  3.2km/h 94% 0.00in /  0mm
23:44 65.0 °F /  18.3 °C 63.2 °F /  17.3 °C 29.80in /  1009hPa Calm     94% 0.00in /  0mm
23:49 65.0 °F /  18.3 °C 63.2 °F /  17.3 °C 29.81in /  1009.4hPa SW 3.0mph /  4.8km/h 3.0mph /  4.8km/h 94% 0.00in /  0mm
23:54 65.0 °F /  18.3 °C 63.2 °F /  17.3 °C 29.81in /  1009.4hPa West 2.0mph /  3.2km/h 4.0mph /  6.4km/h 94% 0.00in /  0mm
23:59 65.0 °F /  18.3 °C 63.5 °F /  17.5 °C 29.80in /  1009hPa NW 2.0mph /  3.2km/h 2.0mph /  3.2km/h 95% 0.00in /  0mm
Compliments of Weather Underground